sensor_id;sensor_type;location;lat;lon;timestamp;temperature;humidity
37460;DHT22;23318;50.966;5.284;2023-07-13T00:01:43;15.40;99.90
37460;DHT22;23318;50.966;5.284;2023-07-13T00:04:09;15.30;99.90
37460;DHT22;23318;50.966;5.284;2023-07-13T00:06:35;15.30;99.90
37460;DHT22;23318;50.966;5.284;2023-07-13T00:09:00;15.30;99.90
37460;DHT22;23318;50.966;5.284;2023-07-13T00:11:27;15.30;99.90
37460;DHT22;23318;50.966;5.284;2023-07-13T00:13:52;15.20;99.90
37460;DHT22;23318;50.966;5.284;2023-07-13T00:16:18;15.10;99.90
37460;DHT22;23318;50.966;5.284;2023-07-13T00:18:45;15.20;99.90
37460;DHT22;23318;50.966;5.284;2023-07-13T00:21:11;15.20;99.90
37460;DHT22;23318;50.966;5.284;2023-07-13T00:23:39;15.10;99.90
37460;DHT22;23318;50.966;5.284;2023-07-13T00:26:07;15.10;99.90
37460;DHT22;23318;50.966;5.284;2023-07-13T00:28:33;15.10;99.90
37460;DHT22;23318;50.966;5.284;2023-07-13T00:30:59;15.10;99.90
37460;DHT22;23318;50.966;5.284;2023-07-13T00:33:28;15.20;99.90
37460;DHT22;23318;50.966;5.284;2023-07-13T00:35:54;15.00;99.90
37460;DHT22;23318;50.966;5.284;2023-07-13T00:38:20;15.10;99.90
37460;DHT22;23318;50.966;5.284;2023-07-13T00:40:46;15.00;99.90
37460;DHT22;23318;50.966;5.284;2023-07-13T00:43:15;15.10;99.90
37460;DHT22;23318;50.966;5.284;2023-07-13T00:48:18;14.90;99.90
37460;DHT22;23318;50.966;5.284;2023-07-13T00:50:48;14.90;99.90
37460;DHT22;23318;50.966;5.284;2023-07-13T00:53:15;14.90;99.90
37460;DHT22;23318;50.966;5.284;2023-07-13T00:55:42;14.90;99.90
37460;DHT22;23318;50.966;5.284;2023-07-13T00:58:07;14.90;99.90
37460;DHT22;23318;50.966;5.284;2023-07-13T01:00:38;14.80;99.90
37460;DHT22;23318;50.966;5.284;2023-07-13T01:03:04;14.80;99.90
37460;DHT22;23318;50.966;5.284;2023-07-13T01:05:32;14.80;99.90
37460;DHT22;23318;50.966;5.284;2023-07-13T01:07:59;14.80;99.90
37460;DHT22;23318;50.966;5.284;2023-07-13T01:10:26;14.80;99.90
37460;DHT22;23318;50.966;5.284;2023-07-13T01:12:52;14.80;99.90
37460;DHT22;23318;50.966;5.284;2023-07-13T01:17:59;14.80;99.90
37460;DHT22;23318;50.966;5.284;2023-07-13T01:20:25;14.70;99.90
37460;DHT22;23318;50.966;5.284;2023-07-13T01:22:51;14.70;99.90
37460;DHT22;23318;50.966;5.284;2023-07-13T01:25:18;14.70;99.90
37460;DHT22;23318;50.966;5.284;2023-07-13T01:27:44;14.80;99.90
37460;DHT22;23318;50.966;5.284;2023-07-13T01:30:10;14.80;99.90
37460;DHT22;23318;50.966;5.284;2023-07-13T01:32:35;14.80;99.90
37460;DHT22;23318;50.966;5.284;2023-07-13T01:35:02;14.80;99.90
37460;DHT22;23318;50.966;5.284;2023-07-13T01:37:28;14.70;99.90
37460;DHT22;23318;50.966;5.284;2023-07-13T01:39:59;14.80;99.90
37460;DHT22;23318;50.966;5.284;2023-07-13T01:42:24;14.70;99.90
37460;DHT22;23318;50.966;5.284;2023-07-13T01:44:50;14.60;99.90
37460;DHT22;23318;50.966;5.284;2023-07-13T01:47:16;14.70;99.90
37460;DHT22;23318;50.966;5.284;2023-07-13T01:49:41;14.70;99.90
37460;DHT22;23318;50.966;5.284;2023-07-13T01:52:07;14.70;99.90
37460;DHT22;23318;50.966;5.284;2023-07-13T01:54:33;14.70;99.90
37460;DHT22;23318;50.966;5.284;2023-07-13T01:56:59;14.70;99.90
37460;DHT22;23318;50.966;5.284;2023-07-13T01:59:25;14.60;99.90
37460;DHT22;23318;50.966;5.284;2023-07-13T02:01:51;14.60;99.90
37460;DHT22;23318;50.966;5.284;2023-07-13T02:04:16;14.50;99.90
37460;DHT22;23318;50.966;5.284;2023-07-13T02:06:42;14.60;99.90
37460;DHT22;23318;50.966;5.284;2023-07-13T02:09:07;14.50;99.90
37460;DHT22;23318;50.966;5.284;2023-07-13T02:11:33;14.40;99.90
37460;DHT22;23318;50.966;5.284;2023-07-13T02:14:00;14.40;99.90
37460;DHT22;23318;50.966;5.284;2023-07-13T02:16:27;14.40;99.90
37460;DHT22;23318;50.966;5.284;2023-07-13T02:18:53;14.60;99.90
37460;DHT22;23318;50.966;5.284;2023-07-13T02:21:20;14.60;99.90
37460;DHT22;23318;50.966;5.284;2023-07-13T02:23:46;14.50;99.90
37460;DHT22;23318;50.966;5.284;2023-07-13T02:26:12;14.40;99.90
37460;DHT22;23318;50.966;5.284;2023-07-13T02:28:38;14.30;99.90
37460;DHT22;23318;50.966;5.284;2023-07-13T02:31:08;14.40;99.90
37460;DHT22;23318;50.966;5.284;2023-07-13T02:33:34;14.30;99.90
37460;DHT22;23318;50.966;5.284;2023-07-13T02:36:00;14.30;99.90
37460;DHT22;23318;50.966;5.284;2023-07-13T02:38:25;14.30;99.90
37460;DHT22;23318;50.966;5.284;2023-07-13T02:40:51;14.20;99.90
37460;DHT22;23318;50.966;5.284;2023-07-13T02:43:17;14.10;99.90
37460;DHT22;23318;50.966;5.284;2023-07-13T02:45:46;14.10;99.90
37460;DHT22;23318;50.966;5.284;2023-07-13T02:48:13;14.20;99.90
37460;DHT22;23318;50.966;5.284;2023-07-13T02:50:39;14.10;99.90
37460;DHT22;23318;50.966;5.284;2023-07-13T02:53:05;14.10;99.90
37460;DHT22;23318;50.966;5.284;2023-07-13T02:55:30;14.00;99.90
37460;DHT22;23318;50.966;5.284;2023-07-13T02:57:56;14.00;99.90
37460;DHT22;23318;50.966;5.284;2023-07-13T03:00:23;14.20;99.90
37460;DHT22;23318;50.966;5.284;2023-07-13T03:02:48;14.10;99.90
37460;DHT22;23318;50.966;5.284;2023-07-13T03:05:16;14.00;99.90
37460;DHT22;23318;50.966;5.284;2023-07-13T03:07:41;14.00;99.90
37460;DHT22;23318;50.966;5.284;2023-07-13T03:10:08;14.10;99.90
37460;DHT22;23318;50.966;5.284;2023-07-13T03:12:34;14.10;99.90
37460;DHT22;23318;50.966;5.284;2023-07-13T03:15:00;14.10;99.90
37460;DHT22;23318;50.966;5.284;2023-07-13T03:17:26;14.10;99.90
37460;DHT22;23318;50.966;5.284;2023-07-13T03:19:51;14.10;99.90
37460;DHT22;23318;50.966;5.284;2023-07-13T03:22:18;14.10;99.90
37460;DHT22;23318;50.966;5.284;2023-07-13T03:24:44;14.10;99.90
37460;DHT22;23318;50.966;5.284;2023-07-13T03:27:10;14.00;99.90
37460;DHT22;23318;50.966;5.284;2023-07-13T03:29:35;14.00;99.90
37460;DHT22;23318;50.966;5.284;2023-07-13T03:32:01;13.90;99.90
37460;DHT22;23318;50.966;5.284;2023-07-13T03:34:27;13.90;99.90
37460;DHT22;23318;50.966;5.284;2023-07-13T03:36:56;14.00;99.90
37460;DHT22;23318;50.966;5.284;2023-07-13T03:39:22;13.90;99.90
37460;DHT22;23318;50.966;5.284;2023-07-13T03:41:48;14.00;99.90
37460;DHT22;23318;50.966;5.284;2023-07-13T03:44:16;14.00;99.90
37460;DHT22;23318;50.966;5.284;2023-07-13T03:46:42;14.00;99.90
37460;DHT22;23318;50.966;5.284;2023-07-13T03:49:08;14.10;99.90
37460;DHT22;23318;50.966;5.284;2023-07-13T03:51:34;14.10;99.90
37460;DHT22;23318;50.966;5.284;2023-07-13T03:54:00;14.10;99.90
37460;DHT22;23318;50.966;5.284;2023-07-13T03:56:25;14.10;99.90
37460;DHT22;23318;50.966;5.284;2023-07-13T03:58:52;14.10;99.90
37460;DHT22;23318;50.966;5.284;2023-07-13T04:01:19;14.10;99.90
37460;DHT22;23318;50.966;5.284;2023-07-13T04:03:45;14.20;99.90
37460;DHT22;23318;50.966;5.284;2023-07-13T04:06:17;14.30;99.90
37460;DHT22;23318;50.966;5.284;2023-07-13T04:08:48;14.30;99.90
37460;DHT22;23318;50.966;5.284;2023-07-13T04:11:14;14.30;99.90
37460;DHT22;23318;50.966;5.284;2023-07-13T04:13:40;14.40;99.90
37460;DHT22;23318;50.966;5.284;2023-07-13T04:16:05;14.40;99.90
37460;DHT22;23318;50.966;5.284;2023-07-13T04:18:31;14.40;99.90
37460;DHT22;23318;50.966;5.284;2023-07-13T04:20:57;14.60;99.90
37460;DHT22;23318;50.966;5.284;2023-07-13T04:23:22;14.70;99.90
37460;DHT22;23318;50.966;5.284;2023-07-13T04:25:51;14.60;99.90
37460;DHT22;23318;50.966;5.284;2023-07-13T04:28:21;14.70;99.90
37460;DHT22;23318;50.966;5.284;2023-07-13T04:30:46;14.60;99.90
37460;DHT22;23318;50.966;5.284;2023-07-13T04:33:12;14.70;99.90
37460;DHT22;23318;50.966;5.284;2023-07-13T04:35:38;14.70;99.90
37460;DHT22;23318;50.966;5.284;2023-07-13T04:38:03;14.80;99.90
37460;DHT22;23318;50.966;5.284;2023-07-13T04:40:29;14.80;99.90
37460;DHT22;23318;50.966;5.284;2023-07-13T04:42:55;14.90;99.90
37460;DHT22;23318;50.966;5.284;2023-07-13T04:45:22;15.00;99.90
37460;DHT22;23318;50.966;5.284;2023-07-13T04:47:49;15.10;99.90
37460;DHT22;23318;50.966;5.284;2023-07-13T04:50:15;15.20;99.90
37460;DHT22;23318;50.966;5.284;2023-07-13T04:52:45;15.20;99.90
37460;DHT22;23318;50.966;5.284;2023-07-13T04:55:11;15.10;99.90
37460;DHT22;23318;50.966;5.284;2023-07-13T04:57:36;15.00;99.90
37460;DHT22;23318;50.966;5.284;2023-07-13T05:00:03;15.20;99.90
37460;DHT22;23318;50.966;5.284;2023-07-13T05:02:31;15.20;99.90
37460;DHT22;23318;50.966;5.284;2023-07-13T05:04:58;15.20;99.90
37460;DHT22;23318;50.966;5.284;2023-07-13T05:07:24;15.10;99.90
37460;DHT22;23318;50.966;5.284;2023-07-13T05:09:50;15.00;99.90
37460;DHT22;23318;50.966;5.284;2023-07-13T05:12:15;15.00;99.90
37460;DHT22;23318;50.966;5.284;2023-07-13T05:14:41;15.00;99.90
37460;DHT22;23318;50.966;5.284;2023-07-13T05:17:07;15.10;99.90
37460;DHT22;23318;50.966;5.284;2023-07-13T05:19:32;15.00;99.90
37460;DHT22;23318;50.966;5.284;2023-07-13T05:21:58;15.00;99.90
37460;DHT22;23318;50.966;5.284;2023-07-13T05:24:24;15.20;99.90
37460;DHT22;23318;50.966;5.284;2023-07-13T05:26:50;15.20;99.90
37460;DHT22;23318;50.966;5.284;2023-07-13T05:29:16;15.30;99.90
37460;DHT22;23318;50.966;5.284;2023-07-13T05:31:41;15.30;99.90
37460;DHT22;23318;50.966;5.284;2023-07-13T05:34:07;15.30;99.90
37460;DHT22;23318;50.966;5.284;2023-07-13T05:36:33;15.40;99.90
37460;DHT22;23318;50.966;5.284;2023-07-13T05:38:59;15.50;99.90
37460;DHT22;23318;50.966;5.284;2023-07-13T05:41:25;15.40;99.90
37460;DHT22;23318;50.966;5.284;2023-07-13T05:43:50;15.40;99.90
37460;DHT22;23318;50.966;5.284;2023-07-13T05:46:16;15.40;99.90
37460;DHT22;23318;50.966;5.284;2023-07-13T05:48:42;15.50;99.90
37460;DHT22;23318;50.966;5.284;2023-07-13T05:51:08;15.50;99.90
37460;DHT22;23318;50.966;5.284;2023-07-13T05:53:34;15.50;99.90
37460;DHT22;23318;50.966;5.284;2023-07-13T05:56:00;15.60;99.90
37460;DHT22;23318;50.966;5.284;2023-07-13T05:58:26;15.60;99.90
37460;DHT22;23318;50.966;5.284;2023-07-13T06:01:20;15.70;99.90
37460;DHT22;23318;50.966;5.284;2023-07-13T06:03:46;15.80;99.90
37460;DHT22;23318;50.966;5.284;2023-07-13T06:06:13;15.80;99.90
37460;DHT22;23318;50.966;5.284;2023-07-13T06:08:39;16.00;99.90
37460;DHT22;23318;50.966;5.284;2023-07-13T06:13:35;16.10;99.90
37460;DHT22;23318;50.966;5.284;2023-07-13T06:16:02;16.20;99.90
37460;DHT22;23318;50.966;5.284;2023-07-13T06:18:30;16.30;99.90
37460;DHT22;23318;50.966;5.284;2023-07-13T06:20:56;16.20;99.90
37460;DHT22;23318;50.966;5.284;2023-07-13T06:23:22;16.30;99.90
37460;DHT22;23318;50.966;5.284;2023-07-13T06:25:48;16.40;99.90
37460;DHT22;23318;50.966;5.284;2023-07-13T06:28:14;16.30;99.90
37460;DHT22;23318;50.966;5.284;2023-07-13T06:30:40;16.30;99.90
37460;DHT22;23318;50.966;5.284;2023-07-13T06:33:06;16.30;99.90
37460;DHT22;23318;50.966;5.284;2023-07-13T06:35:31;16.20;99.90
37460;DHT22;23318;50.966;5.284;2023-07-13T06:37:57;16.30;99.90
37460;DHT22;23318;50.966;5.284;2023-07-13T06:40:23;16.50;99.90
37460;DHT22;23318;50.966;5.284;2023-07-13T06:42:48;16.70;99.90
37460;DHT22;23318;50.966;5.284;2023-07-13T06:45:14;16.80;99.90
37460;DHT22;23318;50.966;5.284;2023-07-13T06:47:40;17.00;99.90
37460;DHT22;23318;50.966;5.284;2023-07-13T06:50:06;16.90;99.90
37460;DHT22;23318;50.966;5.284;2023-07-13T06:52:31;16.80;99.90
37460;DHT22;23318;50.966;5.284;2023-07-13T06:54:57;16.90;99.90
37460;DHT22;23318;50.966;5.284;2023-07-13T06:57:23;17.10;99.90
37460;DHT22;23318;50.966;5.284;2023-07-13T06:59:48;17.10;99.90
37460;DHT22;23318;50.966;5.284;2023-07-13T07:02:14;17.00;99.90
37460;DHT22;23318;50.966;5.284;2023-07-13T07:04:40;17.10;99.90
37460;DHT22;23318;50.966;5.284;2023-07-13T07:07:05;17.00;99.90
37460;DHT22;23318;50.966;5.284;2023-07-13T07:09:31;17.20;99.90
37460;DHT22;23318;50.966;5.284;2023-07-13T07:11:57;17.20;99.90
37460;DHT22;23318;50.966;5.284;2023-07-13T07:14:22;17.30;99.90
37460;DHT22;23318;50.966;5.284;2023-07-13T07:16:49;17.20;99.90
37460;DHT22;23318;50.966;5.284;2023-07-13T07:19:15;17.10;99.90
37460;DHT22;23318;50.966;5.284;2023-07-13T07:21:41;17.20;99.90
37460;DHT22;23318;50.966;5.284;2023-07-13T07:24:07;17.30;99.90
37460;DHT22;23318;50.966;5.284;2023-07-13T07:26:33;17.30;99.90
37460;DHT22;23318;50.966;5.284;2023-07-13T07:28:58;17.40;99.90
37460;DHT22;23318;50.966;5.284;2023-07-13T07:31:24;17.40;99.90
37460;DHT22;23318;50.966;5.284;2023-07-13T07:33:50;17.50;99.90
37460;DHT22;23318;50.966;5.284;2023-07-13T07:36:16;17.60;99.90
37460;DHT22;23318;50.966;5.284;2023-07-13T07:38:43;17.50;99.90
37460;DHT22;23318;50.966;5.284;2023-07-13T07:41:09;17.40;99.90
37460;DHT22;23318;50.966;5.284;2023-07-13T07:43:35;17.70;99.90
37460;DHT22;23318;50.966;5.284;2023-07-13T07:46:01;18.00;99.90
37460;DHT22;23318;50.966;5.284;2023-07-13T07:48:26;18.10;99.90
37460;DHT22;23318;50.966;5.284;2023-07-13T07:50:52;18.40;99.90
37460;DHT22;23318;50.966;5.284;2023-07-13T07:53:17;18.30;99.90
37460;DHT22;23318;50.966;5.284;2023-07-13T07:55:43;18.30;99.90
37460;DHT22;23318;50.966;5.284;2023-07-13T07:58:09;18.30;99.90
37460;DHT22;23318;50.966;5.284;2023-07-13T08:00:35;18.30;99.90
37460;DHT22;23318;50.966;5.284;2023-07-13T08:03:01;18.30;99.90
37460;DHT22;23318;50.966;5.284;2023-07-13T08:05:27;18.00;99.90
37460;DHT22;23318;50.966;5.284;2023-07-13T08:07:52;18.10;99.90
37460;DHT22;23318;50.966;5.284;2023-07-13T08:10:18;18.40;99.90
37460;DHT22;23318;50.966;5.284;2023-07-13T08:12:44;18.50;99.90
37460;DHT22;23318;50.966;5.284;2023-07-13T08:15:13;18.70;99.90
37460;DHT22;23318;50.966;5.284;2023-07-13T08:17:39;18.70;99.90
37460;DHT22;23318;50.966;5.284;2023-07-13T08:20:06;19.00;99.90
37460;DHT22;23318;50.966;5.284;2023-07-13T08:22:31;19.10;99.90
37460;DHT22;23318;50.966;5.284;2023-07-13T08:24:58;19.10;99.90
37460;DHT22;23318;50.966;5.284;2023-07-13T08:27:25;18.70;99.90
37460;DHT22;23318;50.966;5.284;2023-07-13T08:29:51;18.40;99.90
37460;DHT22;23318;50.966;5.284;2023-07-13T08:32:19;18.70;99.90
37460;DHT22;23318;50.966;5.284;2023-07-13T08:34:44;18.70;99.90
37460;DHT22;23318;50.966;5.284;2023-07-13T08:37:10;18.60;99.90
37460;DHT22;23318;50.966;5.284;2023-07-13T08:39:36;18.70;99.90
37460;DHT22;23318;50.966;5.284;2023-07-13T08:42:07;18.90;99.90
37460;DHT22;23318;50.966;5.284;2023-07-13T08:47:17;19.10;99.90
37460;DHT22;23318;50.966;5.284;2023-07-13T08:49:44;19.40;99.90
37460;DHT22;23318;50.966;5.284;2023-07-13T08:52:27;19.30;99.90
37460;DHT22;23318;50.966;5.284;2023-07-13T08:54:55;19.50;99.90
37460;DHT22;23318;50.966;5.284;2023-07-13T08:57:30;19.40;99.90
37460;DHT22;23318;50.966;5.284;2023-07-13T08:59:57;19.40;99.90
37460;DHT22;23318;50.966;5.284;2023-07-13T09:02:42;19.30;99.90
37460;DHT22;23318;50.966;5.284;2023-07-13T09:05:18;19.60;99.90
37460;DHT22;23318;50.966;5.284;2023-07-13T09:10:50;19.50;99.90
37460;DHT22;23318;50.966;5.284;2023-07-13T09:15:47;19.60;99.90
37460;DHT22;23318;50.966;5.284;2023-07-13T09:20:54;19.50;99.90
37460;DHT22;23318;50.966;5.284;2023-07-13T09:23:23;20.00;99.90
37460;DHT22;23318;50.966;5.284;2023-07-13T09:25:53;19.80;99.90
37460;DHT22;23318;50.966;5.284;2023-07-13T09:28:27;19.90;99.90
37460;DHT22;23318;50.966;5.284;2023-07-13T09:31:03;19.50;99.90
37460;DHT22;23318;50.966;5.284;2023-07-13T09:33:30;19.70;99.90
37460;DHT22;23318;50.966;5.284;2023-07-13T09:35:59;20.10;99.90
37460;DHT22;23318;50.966;5.284;2023-07-13T09:38:29;20.20;99.90
37460;DHT22;23318;50.966;5.284;2023-07-13T09:41:17;20.80;99.90
37460;DHT22;23318;50.966;5.284;2023-07-13T09:46:35;20.10;99.90
37460;DHT22;23318;50.966;5.284;2023-07-13T09:49:00;20.30;99.90
37460;DHT22;23318;50.966;5.284;2023-07-13T09:51:29;20.50;99.90
37460;DHT22;23318;50.966;5.284;2023-07-13T09:53:55;20.80;99.90
37460;DHT22;23318;50.966;5.284;2023-07-13T09:56:26;20.80;99.90
37460;DHT22;23318;50.966;5.284;2023-07-13T09:58:52;20.70;99.90
37460;DHT22;23318;50.966;5.284;2023-07-13T10:01:37;20.80;99.90
37460;DHT22;23318;50.966;5.284;2023-07-13T10:04:13;21.10;99.90
37460;DHT22;23318;50.966;5.284;2023-07-13T10:06:42;21.20;99.90
37460;DHT22;23318;50.966;5.284;2023-07-13T10:09:09;21.60;99.90
37460;DHT22;23318;50.966;5.284;2023-07-13T10:11:36;21.10;99.90
37460;DHT22;23318;50.966;5.284;2023-07-13T10:14:13;21.90;99.90
37460;DHT22;23318;50.966;5.284;2023-07-13T10:16:39;21.30;99.90
37460;DHT22;23318;50.966;5.284;2023-07-13T10:21:54;21.90;99.90
37460;DHT22;23318;50.966;5.284;2023-07-13T10:24:30;21.90;99.90
37460;DHT22;23318;50.966;5.284;2023-07-13T10:27:12;21.70;99.90
37460;DHT22;23318;50.966;5.284;2023-07-13T10:32:13;21.60;99.90
37460;DHT22;23318;50.966;5.284;2023-07-13T10:34:41;21.80;99.90
37460;DHT22;23318;50.966;5.284;2023-07-13T10:37:19;22.00;99.90
37460;DHT22;23318;50.966;5.284;2023-07-13T10:39:46;21.90;99.90
37460;DHT22;23318;50.966;5.284;2023-07-13T10:42:18;21.90;99.90
37460;DHT22;23318;50.966;5.284;2023-07-13T10:44:49;21.60;99.90
37460;DHT22;23318;50.966;5.284;2023-07-13T10:47:16;21.30;99.90
37460;DHT22;23318;50.966;5.284;2023-07-13T10:49:44;21.20;99.90
37460;DHT22;23318;50.966;5.284;2023-07-13T10:55:02;21.00;99.90
37460;DHT22;23318;50.966;5.284;2023-07-13T10:57:42;21.60;99.90
37460;DHT22;23318;50.966;5.284;2023-07-13T11:00:16;21.90;99.90
37460;DHT22;23318;50.966;5.284;2023-07-13T11:02:42;21.40;99.90
37460;DHT22;23318;50.966;5.284;2023-07-13T11:05:26;21.30;99.90
37460;DHT22;23318;50.966;5.284;2023-07-13T11:08:13;21.50;99.90
37460;DHT22;23318;50.966;5.284;2023-07-13T11:10:50;23.50;99.90
37460;DHT22;23318;50.966;5.284;2023-07-13T11:13:36;23.50;99.90
37460;DHT22;23318;50.966;5.284;2023-07-13T11:19:37;22.90;99.90
37460;DHT22;23318;50.966;5.284;2023-07-13T11:24:59;24.80;98.30
37460;DHT22;23318;50.966;5.284;2023-07-13T11:36:03;24.20;97.90
37460;DHT22;23318;50.966;5.284;2023-07-13T11:38:36;25.00;96.60
37460;DHT22;23318;50.966;5.284;2023-07-13T11:41:24;24.40;97.60
37460;DHT22;23318;50.966;5.284;2023-07-13T11:44:01;23.60;98.90
37460;DHT22;23318;50.966;5.284;2023-07-13T11:46:28;23.10;99.90
37460;DHT22;23318;50.966;5.284;2023-07-13T11:48:54;25.20;98.40
37460;DHT22;23318;50.966;5.284;2023-07-13T11:51:35;25.80;96.30
37460;DHT22;23318;50.966;5.284;2023-07-13T11:56:49;24.20;97.60
37460;DHT22;23318;50.966;5.284;2023-07-13T11:59:16;23.50;98.40
37460;DHT22;23318;50.966;5.284;2023-07-13T12:01:50;22.60;98.60
37460;DHT22;23318;50.966;5.284;2023-07-13T12:04:25;22.80;98.90
37460;DHT22;23318;50.966;5.284;2023-07-13T12:07:14;22.60;99.20
37460;DHT22;23318;50.966;5.284;2023-07-13T12:09:40;22.10;99.90
37460;DHT22;23318;50.966;5.284;2023-07-13T12:12:18;22.20;99.90
37460;DHT22;23318;50.966;5.284;2023-07-13T12:14:45;23.40;97.90
37460;DHT22;23318;50.966;5.284;2023-07-13T12:17:21;23.70;97.70
37460;DHT22;23318;50.966;5.284;2023-07-13T12:19:48;23.60;97.30
37460;DHT22;23318;50.966;5.284;2023-07-13T12:22:16;23.50;97.80
37460;DHT22;23318;50.966;5.284;2023-07-13T12:24:44;23.60;98.40
37460;DHT22;23318;50.966;5.284;2023-07-13T12:27:22;24.20;97.80
37460;DHT22;23318;50.966;5.284;2023-07-13T12:30:23;24.70;97.10
37460;DHT22;23318;50.966;5.284;2023-07-13T12:33:08;24.70;96.90
37460;DHT22;23318;50.966;5.284;2023-07-13T12:35:46;23.70;98.00
37460;DHT22;23318;50.966;5.284;2023-07-13T12:38:12;23.50;98.40
37460;DHT22;23318;50.966;5.284;2023-07-13T12:40:39;23.10;98.60
37460;DHT22;23318;50.966;5.284;2023-07-13T12:43:11;22.80;99.00
37460;DHT22;23318;50.966;5.284;2023-07-13T12:45:38;22.60;98.90
37460;DHT22;23318;50.966;5.284;2023-07-13T12:48:11;22.70;99.40
37460;DHT22;23318;50.966;5.284;2023-07-13T12:50:48;22.50;99.00
37460;DHT22;23318;50.966;5.284;2023-07-13T12:53:24;22.90;99.50
37460;DHT22;23318;50.966;5.284;2023-07-13T12:55:55;22.70;99.20
37460;DHT22;23318;50.966;5.284;2023-07-13T12:58:40;22.50;98.40
37460;DHT22;23318;50.966;5.284;2023-07-13T13:01:13;22.40;98.60
37460;DHT22;23318;50.966;5.284;2023-07-13T13:03:52;22.00;99.30
37460;DHT22;23318;50.966;5.284;2023-07-13T13:08:46;21.50;99.10
37460;DHT22;23318;50.966;5.284;2023-07-13T13:11:12;21.50;98.80
37460;DHT22;23318;50.966;5.284;2023-07-13T13:13:44;21.50;99.10
37460;DHT22;23318;50.966;5.284;2023-07-13T13:18:44;21.40;99.90
37460;DHT22;23318;50.966;5.284;2023-07-13T13:21:10;20.90;99.90
37460;DHT22;23318;50.966;5.284;2023-07-13T13:23:37;20.80;99.90
37460;DHT22;23318;50.966;5.284;2023-07-13T13:26:03;19.90;99.90
37460;DHT22;23318;50.966;5.284;2023-07-13T13:28:31;19.70;99.90
37460;DHT22;23318;50.966;5.284;2023-07-13T13:30:57;19.50;99.90
37460;DHT22;23318;50.966;5.284;2023-07-13T13:33:23;19.30;99.90
37460;DHT22;23318;50.966;5.284;2023-07-13T13:35:49;19.30;99.90
37460;DHT22;23318;50.966;5.284;2023-07-13T13:38:21;19.20;99.90
37460;DHT22;23318;50.966;5.284;2023-07-13T13:40:48;19.20;99.90
37460;DHT22;23318;50.966;5.284;2023-07-13T13:45:42;19.30;99.90
37460;DHT22;23318;50.966;5.284;2023-07-13T13:48:14;19.40;99.90
37460;DHT22;23318;50.966;5.284;2023-07-13T13:50:40;19.50;99.90
37460;DHT22;23318;50.966;5.284;2023-07-13T13:53:10;19.50;99.90
37460;DHT22;23318;50.966;5.284;2023-07-13T13:55:37;19.30;99.90
37460;DHT22;23318;50.966;5.284;2023-07-13T13:58:04;19.30;99.90
37460;DHT22;23318;50.966;5.284;2023-07-13T14:00:30;19.00;99.90
37460;DHT22;23318;50.966;5.284;2023-07-13T14:02:56;19.00;99.90
37460;DHT22;23318;50.966;5.284;2023-07-13T14:05:24;19.00;99.90
37460;DHT22;23318;50.966;5.284;2023-07-13T14:07:53;19.30;99.90
37460;DHT22;23318;50.966;5.284;2023-07-13T14:10:20;19.50;99.90
37460;DHT22;23318;50.966;5.284;2023-07-13T14:12:52;20.00;99.90
37460;DHT22;23318;50.966;5.284;2023-07-13T14:15:22;20.20;99.90
37460;DHT22;23318;50.966;5.284;2023-07-13T14:17:47;20.50;99.90
37460;DHT22;23318;50.966;5.284;2023-07-13T14:20:18;20.50;99.90
37460;DHT22;23318;50.966;5.284;2023-07-13T14:22:44;20.70;99.90
37460;DHT22;23318;50.966;5.284;2023-07-13T14:25:14;21.20;99.90
37460;DHT22;23318;50.966;5.284;2023-07-13T14:27:41;21.20;99.90
37460;DHT22;23318;50.966;5.284;2023-07-13T14:30:15;21.00;99.90
37460;DHT22;23318;50.966;5.284;2023-07-13T14:32:41;21.30;99.90
37460;DHT22;23318;50.966;5.284;2023-07-13T14:35:14;21.20;99.90
37460;DHT22;23318;50.966;5.284;2023-07-13T14:37:40;21.10;99.90
37460;DHT22;23318;50.966;5.284;2023-07-13T14:40:26;20.70;99.90
37460;DHT22;23318;50.966;5.284;2023-07-13T14:42:52;20.80;99.90
37460;DHT22;23318;50.966;5.284;2023-07-13T14:45:19;20.30;99.90
37460;DHT22;23318;50.966;5.284;2023-07-13T14:47:46;20.00;99.90
37460;DHT22;23318;50.966;5.284;2023-07-13T14:50:18;20.10;99.90
37460;DHT22;23318;50.966;5.284;2023-07-13T14:52:45;20.80;99.90
37460;DHT22;23318;50.966;5.284;2023-07-13T14:55:14;21.20;99.90
37460;DHT22;23318;50.966;5.284;2023-07-13T14:57:40;21.50;99.90
37460;DHT22;23318;50.966;5.284;2023-07-13T15:00:15;21.50;99.90
37460;DHT22;23318;50.966;5.284;2023-07-13T15:02:44;21.50;99.90
37460;DHT22;23318;50.966;5.284;2023-07-13T15:07:39;21.40;99.90
37460;DHT22;23318;50.966;5.284;2023-07-13T15:10:15;21.20;99.90
37460;DHT22;23318;50.966;5.284;2023-07-13T15:12:40;21.50;99.90
37460;DHT22;23318;50.966;5.284;2023-07-13T15:15:06;22.00;99.90
37460;DHT22;23318;50.966;5.284;2023-07-13T15:22:49;25.60;97.70
37460;DHT22;23318;50.966;5.284;2023-07-13T15:25:23;26.80;96.90
37460;DHT22;23318;50.966;5.284;2023-07-13T15:27:53;26.00;96.30
37460;DHT22;23318;50.966;5.284;2023-07-13T15:30:19;25.70;97.20
37460;DHT22;23318;50.966;5.284;2023-07-13T15:32:46;26.20;96.50
37460;DHT22;23318;50.966;5.284;2023-07-13T15:35:20;26.50;96.50
37460;DHT22;23318;50.966;5.284;2023-07-13T15:37:48;26.30;96.30
37460;DHT22;23318;50.966;5.284;2023-07-13T15:40:14;25.60;96.90
37460;DHT22;23318;50.966;5.284;2023-07-13T15:42:44;25.10;97.10
37460;DHT22;23318;50.966;5.284;2023-07-13T15:45:21;25.10;97.00
37460;DHT22;23318;50.966;5.284;2023-07-13T15:47:49;23.60;98.70
37460;DHT22;23318;50.966;5.284;2023-07-13T15:50:20;23.20;99.80
37460;DHT22;23318;50.966;5.284;2023-07-13T15:52:52;23.90;98.50
37460;DHT22;23318;50.966;5.284;2023-07-13T15:55:18;23.50;99.30
37460;DHT22;23318;50.966;5.284;2023-07-13T15:57:50;23.50;99.40
37460;DHT22;23318;50.966;5.284;2023-07-13T16:00:21;23.60;99.30
37460;DHT22;23318;50.966;5.284;2023-07-13T16:02:48;23.30;99.70
37460;DHT22;23318;50.966;5.284;2023-07-13T16:05:15;23.60;99.00
37460;DHT22;23318;50.966;5.284;2023-07-13T16:07:43;23.30;99.90
37460;DHT22;23318;50.966;5.284;2023-07-13T16:10:16;22.70;99.00
37460;DHT22;23318;50.966;5.284;2023-07-13T16:12:42;22.40;99.90
37460;DHT22;23318;50.966;5.284;2023-07-13T16:15:17;22.60;99.70
37460;DHT22;23318;50.966;5.284;2023-07-13T16:17:44;22.20;99.70
37460;DHT22;23318;50.966;5.284;2023-07-13T16:20:11;22.30;99.40
37460;DHT22;23318;50.966;5.284;2023-07-13T16:22:41;22.40;99.90
37460;DHT22;23318;50.966;5.284;2023-07-13T16:25:17;22.40;99.90
37460;DHT22;23318;50.966;5.284;2023-07-13T16:27:45;22.90;99.90
37460;DHT22;23318;50.966;5.284;2023-07-13T16:30:31;23.10;99.00
37460;DHT22;23318;50.966;5.284;2023-07-13T16:33:00;23.10;99.00
37460;DHT22;23318;50.966;5.284;2023-07-13T16:35:33;23.40;99.50
37460;DHT22;23318;50.966;5.284;2023-07-13T16:38:08;23.40;98.70
37460;DHT22;23318;50.966;5.284;2023-07-13T16:40:38;23.10;99.70